Terminal Aerodrome Forecast
Issued by NWS

Home | Current Version | Previous Version | Text Only | Print | Product List | Glossary On
Versions: 1 2 3 4 5 6 7 8 9 10 11 12 13 14 15 16 17 18 19 20 21 22 23 24 25 26 27 28 29 30 31 32 33 34
000
FTUS41 KOKX 240244 AAC
TAFGON
TAF AMD
KGON 240244Z 2403/2424 22010KT 6SM BR VCSH SCT008
     FM240600 19008KT 3SM BR VCSH BKN008
     FM240900 21008KT 3SM -SHRA BR SCT008 BKN035
      TEMPO 2413/2417 2SM +SHRA BR BKN007 OVC020
     FM241700 26010G19KT P6SM SCT050
     FM242000 30014G20KT P6SM FEW050=

USA.gov is the U.S. government's official web portal to all federal, state and local government web resources and services.